Time;durP1;ratioP1;P1;durP2;ratioP2;P2;SDS_P1;SDS_P2;PMS_P1;PMS_P2;Temp;Humidity;BMP_temperature;BMP_pressure;BME280_temperature;BME280_humidity;BME280_pressure;Samples;Min_cycle;Max_cycle;Signal;HPM_P1;HPM_P2
2023/10/23 00:01:07;;;;;;;0.80;0.80;;;;;;;3.51;94.04;98316.66;5003035;28;20034;-77
2023/10/23 00:03:32;;;;;;;0.80;0.80;;;;;;;3.54;93.50;98314.13;5002516;28;20049;-77
2023/10/23 00:05:57;;;;;;;0.90;0.90;;;;;;;3.55;93.45;98323.88;5005323;28;21710;-77
2023/10/23 00:08:23;;;;;;;0.80;0.80;;;;;;;3.50;93.51;98320.13;5000741;28;20056;-77
2023/10/23 00:10:49;;;;;;;0.80;0.80;;;;;;;3.43;93.60;98318.88;5004962;28;20046;-77
2023/10/23 00:13:14;;;;;;;0.73;0.73;;;;;;;3.28;93.71;98318.13;5002336;28;20109;-79
2023/10/23 00:15:40;;;;;;;0.90;0.90;;;;;;;3.11;93.33;98313.72;5002433;28;20565;-76
2023/10/23 00:18:05;;;;;;;0.90;0.90;;;;;;;3.25;93.80;98307.41;5003876;28;20034;-76
2023/10/23 00:20:30;;;;;;;0.85;0.85;;;;;;;2.97;93.57;98308.66;5003890;28;20037;-77
2023/10/23 00:22:56;;;;;;;0.90;0.90;;;;;;;3.24;94.06;98309.16;5003217;28;20056;-76
2023/10/23 00:25:21;;;;;;;0.88;0.88;;;;;;;3.40;93.38;98307.28;5003914;28;20132;-76
2023/10/23 00:27:47;;;;;;;0.90;0.90;;;;;;;3.30;93.06;98311.19;5003331;28;20460;-76
2023/10/23 00:30:12;;;;;;;0.90;0.90;;;;;;;3.28;93.16;98311.13;5001673;28;20049;-76
2023/10/23 00:32:38;;;;;;;0.80;0.80;;;;;;;3.25;92.82;98317.94;5000312;28;20030;-77
2023/10/23 00:35:05;;;;;;;0.80;0.80;;;;;;;3.19;93.21;98320.28;5003298;28;20038;-77
2023/10/23 00:37:30;;;;;;;0.82;0.82;;;;;;;3.23;93.97;98322.25;4985707;28;20041;-77
2023/10/23 00:39:56;;;;;;;0.90;0.90;;;;;;;3.18;93.16;98327.28;5003792;28;20494;-77
2023/10/23 00:42:21;;;;;;;0.80;0.80;;;;;;;2.99;93.50;98335.06;5003003;28;20038;-77
2023/10/23 00:44:47;;;;;;;0.80;0.80;;;;;;;2.85;93.68;98342.25;5003644;28;20100;-77
2023/10/23 00:47:12;;;;;;;0.82;0.82;;;;;;;2.91;94.00;98341.66;5017069;28;20034;-77
2023/10/23 00:49:38;;;;;;;0.80;0.80;;;;;;;2.80;94.10;98344.66;5004484;28;20391;-77
2023/10/23 00:52:05;;;;;;;0.80;0.80;;;;;;;3.05;94.17;98338.03;5000127;28;20431;-77
2023/10/23 00:54:32;;;;;;;0.80;0.80;;;;;;;2.91;94.06;98352.19;5002308;28;20133;-77
2023/10/23 00:56:58;;;;;;;1.00;1.00;;;;;;;2.99;94.14;98337.72;5004362;28;20137;-77
2023/10/23 00:59:24;;;;;;;0.82;0.82;;;;;;;3.14;93.84;98340.22;4999367;28;20033;-77
2023/10/23 01:01:50;;;;;;;0.80;0.80;;;;;;;3.10;93.79;98341.78;4999623;28;20038;-77
2023/10/23 01:04:16;;;;;;;0.90;0.90;;;;;;;3.15;93.20;98336.75;5003278;28;20022;-77
2023/10/23 01:06:41;;;;;;;0.80;0.80;;;;;;;3.03;93.59;98342.31;5000421;28;20046;-77
2023/10/23 01:09:07;;;;;;;0.80;0.80;;;;;;;2.66;93.21;98340.38;5001470;28;20095;-77
2023/10/23 01:11:33;;;;;;;0.90;0.90;;;;;;;2.73;93.45;98346.84;5002513;28;20077;-77
2023/10/23 01:13:58;;;;;;;0.90;0.90;;;;;;;2.41;93.54;98335.53;5001820;28;20034;-77
2023/10/23 01:16:24;;;;;;;0.98;0.98;;;;;;;2.65;93.93;98329.75;4999363;28;20026;-77
2023/10/23 01:18:49;;;;;;;1.00;1.00;;;;;;;2.77;93.65;98344.47;4986501;28;20061;-77
2023/10/23 01:21:16;;;;;;;0.80;0.80;;;;;;;2.75;93.74;98332.97;4999013;28;20383;-76
2023/10/23 01:23:45;;;;;;;0.90;0.90;;;;;;;2.73;93.30;98329.34;5001731;28;20045;-76
2023/10/23 01:26:11;;;;;;;0.90;0.90;;;;;;;2.78;93.60;98322.59;4999979;28;20095;-78
2023/10/23 01:28:36;;;;;;;0.90;0.90;;;;;;;2.78;93.72;98327.88;5001417;28;20446;-78
2023/10/23 01:31:02;;;;;;;0.80;0.80;;;;;;;2.49;93.38;98318.41;4998308;28;20034;-79
2023/10/23 01:33:28;;;;;;;0.90;0.90;;;;;;;2.57;93.56;98317.06;4999994;28;20325;-77
2023/10/23 01:35:54;;;;;;;1.00;1.00;;;;;;;2.45;93.83;98315.53;5000442;28;20034;-76
2023/10/23 01:38:19;;;;;;;0.90;0.90;;;;;;;2.26;93.92;98316.25;5001819;28;20045;-78
2023/10/23 01:40:45;;;;;;;0.90;0.90;;;;;;;2.21;94.18;98317.75;5000620;28;20042;-77
2023/10/23 01:43:10;;;;;;;0.80;0.80;;;;;;;2.33;94.31;98320.13;5001428;28;20695;-78
2023/10/23 01:45:36;;;;;;;1.00;1.00;;;;;;;2.38;94.04;98326.53;5000280;28;20041;-76
2023/10/23 01:48:01;;;;;;;1.00;1.00;;;;;;;2.41;94.08;98325.00;4996892;28;20042;-76
2023/10/23 01:50:27;;;;;;;0.90;0.90;;;;;;;2.46;94.11;98327.88;5015760;28;20030;-76
2023/10/23 01:52:52;;;;;;;1.00;1.00;;;;;;;2.42;94.08;98325.88;5001150;28;20044;-78
2023/10/23 01:55:18;;;;;;;0.98;0.98;;;;;;;2.40;93.94;98324.91;5002169;28;20131;-78
2023/10/23 01:57:44;;;;;;;1.00;1.00;;;;;;;2.43;93.89;98331.22;5001642;28;20041;-77
2023/10/23 02:00:11;;;;;;;0.93;0.93;;;;;;;2.13;93.98;98325.19;5000043;28;20380;-77
2023/10/23 02:02:41;;;;;;;0.90;0.90;;;;;;;2.20;94.20;98326.44;5001234;28;20033;-78
2023/10/23 02:05:06;;;;;;;0.95;0.95;;;;;;;2.37;94.11;98330.00;4999528;28;20065;-78
2023/10/23 02:07:32;;;;;;;0.90;0.90;;;;;;;2.18;94.01;98329.00;5000301;28;20096;-78
2023/10/23 02:09:57;;;;;;;0.90;0.90;;;;;;;1.94;93.51;98327.63;4994090;28;20046;-77
2023/10/23 02:12:23;;;;;;;0.90;0.90;;;;;;;1.94;93.43;98330.25;5000738;28;20033;-78
2023/10/23 02:14:52;;;;;;;0.90;0.90;;;;;;;1.95;93.55;98324.19;5001932;28;20034;-78
2023/10/23 02:17:21;;;;;;;0.90;0.90;;;;;;;1.69;93.19;98325.34;5002852;28;20448;-78
2023/10/23 02:19:47;;;;;;;0.90;0.90;;;;;;;1.86;94.08;98324.56;4997424;28;20041;-77
2023/10/23 02:22:13;;;;;;;1.00;1.00;;;;;;;1.90;94.26;98321.28;5003477;28;20034;-78
2023/10/23 02:24:38;;;;;;;1.00;1.00;;;;;;;2.02;94.20;98321.09;5001850;28;20431;-76
2023/10/23 02:27:04;;;;;;;0.90;0.90;;;;;;;2.12;94.02;98315.50;4999012;28;20056;-77
2023/10/23 02:29:31;;;;;;;1.00;1.00;;;;;;;2.12;94.05;98318.13;5003038;28;20033;-76
2023/10/23 02:31:56;;;;;;;1.00;1.00;;;;;;;1.86;93.95;98329.81;4998923;28;20054;-76
2023/10/23 02:34:22;;;;;;;0.90;0.90;;;;;;;2.09;93.97;98312.69;5000193;28;20095;-76
2023/10/23 02:36:47;;;;;;;0.90;0.90;;;;;;;2.18;93.65;98313.19;4999464;28;20037;-76
2023/10/23 02:39:15;;;;;;;1.00;1.00;;;;;;;1.93;93.60;98318.84;4999476;28;20034;-76
2023/10/23 02:41:42;;;;;;;0.85;0.85;;;;;;;1.88;94.10;98322.03;5000540;28;20117;-76
2023/10/23 02:44:08;;;;;;;0.90;0.90;;;;;;;1.77;94.00;98322.34;5001514;28;20411;-76
2023/10/23 02:46:35;;;;;;;1.00;1.00;;;;;;;1.70;94.03;98321.91;4997696;28;20164;-77
2023/10/23 02:49:03;;;;;;;1.10;1.10;;;;;;;1.80;94.16;98321.59;5002135;28;20038;-76
2023/10/23 02:51:28;;;;;;;1.00;1.00;;;;;;;1.67;93.65;98322.63;4996775;28;20045;-76
2023/10/23 02:53:54;;;;;;;0.93;0.93;;;;;;;1.42;93.81;98328.19;4999725;28;20034;-77
2023/10/23 02:56:20;;;;;;;0.90;0.90;;;;;;;1.62;94.57;98329.34;5014054;28;20383;-77
2023/10/23 02:58:45;;;;;;;0.90;0.90;;;;;;;1.62;94.15;98334.59;5001236;28;20033;-76
2023/10/23 03:01:19;;;;;;;1.00;1.00;;;;;;;1.49;94.31;98334.72;4985245;28;20388;-77
2023/10/23 03:03:45;;;;;;;1.00;1.00;;;;;;;1.37;94.41;98337.53;5012769;28;20125;-76
2023/10/23 03:06:11;;;;;;;0.90;0.90;;;;;;;1.46;94.44;98343.31;5000961;28;20131;-76
2023/10/23 03:08:37;;;;;;;1.00;1.00;;;;;;;1.53;94.43;98345.50;5014905;28;20034;-76
2023/10/23 03:11:02;;;;;;;1.00;1.00;;;;;;;1.37;94.28;98341.88;4984690;28;20491;-76
2023/10/23 03:13:28;;;;;;;1.00;1.00;;;;;;;1.43;94.37;98342.22;4999825;28;20383;-76
2023/10/23 03:15:54;;;;;;;0.90;0.90;;;;;;;1.56;94.54;98336.88;4999490;28;20113;-76
2023/10/23 03:18:19;;;;;;;1.10;1.10;;;;;;;1.52;94.28;98342.78;5001045;28;20042;-76
2023/10/23 03:20:45;;;;;;;1.00;1.00;;;;;;;1.74;94.27;98334.41;5001061;28;20046;-76
2023/10/23 03:23:11;;;;;;;1.00;1.00;;;;;;;1.56;94.29;98329.00;5001402;28;20108;-76
2023/10/23 03:25:36;;;;;;;1.00;1.00;;;;;;;1.37;94.35;98331.38;4999200;28;20041;-76
2023/10/23 03:28:02;;;;;;;0.93;0.93;;;;;;;1.37;94.44;98334.00;4999579;28;20045;-75
2023/10/23 03:30:27;;;;;;;1.00;1.00;;;;;;;1.30;93.83;98334.47;4993561;28;20076;-76
2023/10/23 03:32:53;;;;;;;1.00;1.00;;;;;;;1.58;94.24;98331.69;4998849;28;20037;-76
2023/10/23 03:35:19;;;;;;;1.00;1.00;;;;;;;1.51;93.92;98336.63;5000284;28;20093;-76
2023/10/23 03:37:45;;;;;;;0.95;0.95;;;;;;;1.67;94.08;98343.66;5002332;28;20034;-76
2023/10/23 03:40:11;;;;;;;1.08;1.08;;;;;;;1.35;93.66;98336.56;4999612;28;20048;-76
2023/10/23 03:42:37;;;;;;;1.00;1.00;;;;;;;1.27;94.29;98337.81;4999780;28;20033;-76
2023/10/23 03:45:04;;;;;;;0.90;0.90;;;;;;;1.21;94.31;98337.47;4997428;28;20407;-76
2023/10/23 03:47:29;;;;;;;1.10;1.10;;;;;;;1.43;94.35;98342.22;4997846;28;20114;-76
2023/10/23 03:49:55;;;;;;;1.10;1.10;;;;;;;1.40;94.57;98335.09;4999334;28;20129;-75
2023/10/23 03:52:21;;;;;;;1.05;1.05;;;;;;;1.53;94.22;98337.63;4999583;28;20049;-76
2023/10/23 03:54:46;;;;;;;1.00;1.00;;;;;;;1.38;94.13;98320.03;5000868;28;20046;-76
2023/10/23 03:57:12;;;;;;;1.00;1.00;;;;;;;1.51;94.06;98333.09;4999480;28;20048;-76
2023/10/23 03:59:41;;;;;;;1.00;1.00;;;;;;;1.61;94.01;98332.78;4999106;28;20042;-76
2023/10/23 04:02:07;;;;;;;1.08;1.08;;;;;;;1.17;93.55;98327.59;5000506;28;20109;-76
2023/10/23 04:04:32;;;;;;;1.00;1.00;;;;;;;1.13;94.41;98322.97;5004145;28;20034;-76
2023/10/23 04:06:58;;;;;;;0.95;0.95;;;;;;;1.32;94.25;98324.94;5005594;28;20494;-76
2023/10/23 04:09:23;;;;;;;1.00;1.00;;;;;;;0.98;93.78;98322.97;5001570;28;20084;-76
2023/10/23 04:11:49;;;;;;;1.00;1.00;;;;;;;1.23;94.25;98322.69;5002119;28;20030;-76
2023/10/23 04:14:14;;;;;;;1.08;1.08;;;;;;;1.06;94.27;98312.94;5003808;28;20030;-76
2023/10/23 04:16:40;;;;;;;1.00;1.00;;;;;;;1.16;94.23;98310.03;5002923;28;20045;-76
2023/10/23 04:19:05;;;;;;;1.00;1.00;;;;;;;1.30;94.45;98313.47;5003696;28;20042;-77
2023/10/23 04:21:31;;;;;;;1.08;1.08;;;;;;;1.43;94.18;98314.22;5001156;28;20388;-77
2023/10/23 04:23:56;;;;;;;1.00;1.00;;;;;;;1.21;94.15;98313.81;5003607;28;20029;-77
2023/10/23 04:26:22;;;;;;;1.00;1.00;;;;;;;1.41;94.21;98321.13;5002211;28;20042;-77
2023/10/23 04:28:47;;;;;;;1.10;1.10;;;;;;;1.45;93.99;98319.59;5005466;28;20053;-76
2023/10/23 04:31:13;;;;;;;1.00;1.00;;;;;;;1.45;93.48;98316.97;5001491;28;20046;-77
2023/10/23 04:33:38;;;;;;;1.00;1.00;;;;;;;1.18;93.59;98309.28;5002065;28;20030;-77
2023/10/23 04:36:03;;;;;;;1.00;1.00;;;;;;;0.77;93.39;98312.09;5004335;28;20038;-77
2023/10/23 04:38:31;;;;;;;1.00;1.00;;;;;;;0.89;94.13;98304.03;5001148;28;20045;-76
2023/10/23 04:40:56;;;;;;;1.10;1.10;;;;;;;0.87;94.28;98301.31;5001774;28;20041;-77
2023/10/23 04:43:22;;;;;;;1.00;1.00;;;;;;;0.65;93.81;98303.47;5002230;28;20030;-77
2023/10/23 04:45:52;;;;;;;1.10;1.10;;;;;;;0.90;94.29;98306.72;5016545;28;20690;-77
2023/10/23 04:48:18;;;;;;;1.00;1.00;;;;;;;0.86;94.42;98295.97;5003357;28;20045;-77
2023/10/23 04:50:43;;;;;;;1.00;1.00;;;;;;;0.82;94.72;98291.38;5001685;28;20033;-77
2023/10/23 04:53:09;;;;;;;1.10;1.10;;;;;;;0.95;94.44;98289.53;5005948;28;20026;-77
2023/10/23 04:55:36;;;;;;;1.05;1.05;;;;;;;1.07;94.70;98293.72;5001864;28;20050;-77
2023/10/23 04:58:02;;;;;;;1.00;1.00;;;;;;;0.83;94.45;98298.41;5004619;28;20065;-77
2023/10/23 05:00:28;;;;;;;1.00;1.00;;;;;;;0.74;94.42;98288.25;5001407;28;20034;-77
2023/10/23 05:02:54;;;;;;;1.10;1.10;;;;;;;0.68;94.57;98294.06;4999666;28;20069;-77
2023/10/23 05:05:20;;;;;;;1.00;1.00;;;;;;;0.76;94.89;98292.78;5000166;28;20744;-77
2023/10/23 05:07:45;;;;;;;1.00;1.00;;;;;;;0.86;94.69;98295.97;4998076;28;21111;-78
2023/10/23 05:10:11;;;;;;;1.00;1.00;;;;;;;1.02;94.59;98298.69;5002204;28;20034;-77
2023/10/23 05:12:37;;;;;;;1.10;1.10;;;;;;;0.72;94.45;98292.53;5001967;28;20039;-77
2023/10/23 05:15:04;;;;;;;1.10;1.10;;;;;;;0.67;94.82;98292.25;5001669;28;20084;-78
2023/10/23 05:17:29;;;;;;;1.10;1.10;;;;;;;0.64;94.48;98299.03;4999512;28;20069;-77
2023/10/23 05:19:55;;;;;;;0.95;0.95;;;;;;;0.72;94.76;98295.16;5003287;28;20050;-78
2023/10/23 05:22:20;;;;;;;1.10;1.10;;;;;;;0.56;94.67;98295.03;5001576;28;20427;-79
2023/10/23 05:24:46;;;;;;;1.00;1.00;;;;;;;0.67;94.86;98289.63;5002154;28;20034;-79
2023/10/23 05:27:13;;;;;;;1.10;1.10;;;;;;;0.90;95.08;98280.47;5001921;28;20129;-79
2023/10/23 05:29:38;;;;;;;1.00;1.00;;;;;;;0.96;95.01;98282.59;5001174;28;20077;-79
2023/10/23 05:32:04;;;;;;;1.00;1.00;;;;;;;0.94;94.74;98277.22;4998575;28;20410;-80
2023/10/23 05:34:29;;;;;;;0.90;0.90;;;;;;;0.94;94.63;98269.34;5001699;28;20396;-81
2023/10/23 05:36:55;;;;;;;1.00;1.00;;;;;;;0.94;94.53;98279.84;5000078;28;20049;-81
2023/10/23 05:39:20;;;;;;;1.05;1.05;;;;;;;0.90;94.39;98274.31;5000948;28;20046;-80
2023/10/23 05:41:46;;;;;;;1.10;1.10;;;;;;;0.90;93.88;98277.84;5004971;28;20030;-81
2023/10/23 05:44:11;;;;;;;1.00;1.00;;;;;;;1.21;94.29;98291.06;5002464;28;20037;-79
2023/10/23 05:46:37;;;;;;;1.00;1.00;;;;;;;1.00;93.96;98295.06;5018106;28;20116;-78
2023/10/23 05:49:03;;;;;;;1.00;1.00;;;;;;;0.82;93.81;98299.25;4996766;28;20423;-78
2023/10/23 05:51:28;;;;;;;1.00;1.00;;;;;;;0.82;94.53;98299.25;5000409;28;20442;-79
2023/10/23 05:53:56;;;;;;;1.10;1.10;;;;;;;1.14;94.14;98302.03;5003147;28;20096;-79
2023/10/23 05:56:22;;;;;;;1.10;1.10;;;;;;;0.92;93.62;98299.88;5018326;28;20140;-79
2023/10/23 05:58:50;;;;;;;1.10;1.10;;;;;;;0.95;93.96;98307.00;5006903;28;20657;-78
2023/10/23 06:01:15;;;;;;;0.90;0.90;;;;;;;0.95;93.89;98304.38;5003590;28;20030;-79
2023/10/23 06:03:41;;;;;;;1.10;1.10;;;;;;;0.88;94.15;98307.47;5000781;28;20037;-79
2023/10/23 06:06:07;;;;;;;1.00;1.00;;;;;;;0.67;93.82;98318.50;5004802;28;20036;-78
2023/10/23 06:08:33;;;;;;;1.10;1.10;;;;;;;0.77;93.62;98313.00;5002267;28;20061;-78
2023/10/23 06:10:59;;;;;;;1.10;1.10;;;;;;;0.65;93.46;98308.72;5003399;28;20033;-77
2023/10/23 06:13:25;;;;;;;1.10;1.10;;;;;;;0.75;93.90;98314.59;5005722;28;20107;-78
2023/10/23 06:15:51;;;;;;;1.10;1.10;;;;;;;0.77;93.77;98315.63;5007496;28;20066;-79
2023/10/23 06:18:16;;;;;;;1.00;1.00;;;;;;;0.73;93.76;98313.63;5006051;28;20472;-78
2023/10/23 06:20:42;;;;;;;1.10;1.10;;;;;;;1.02;93.84;98317.09;5003942;28;20065;-80
2023/10/23 06:23:07;;;;;;;1.08;1.08;;;;;;;1.27;93.53;98325.56;5006198;28;20531;-80
2023/10/23 06:25:33;;;;;;;1.00;1.00;;;;;;;1.20;93.06;98320.78;5006199;28;20042;-80
2023/10/23 06:27:59;;;;;;;1.00;1.00;;;;;;;1.28;93.64;98316.88;5003963;28;20050;-78
2023/10/23 06:30:25;;;;;;;1.10;1.10;;;;;;;1.48;92.95;98320.66;5005862;28;20122;-78
2023/10/23 06:32:51;;;;;;;1.00;1.00;;;;;;;1.93;92.30;98320.56;5006374;28;20153;-78
2023/10/23 06:35:16;;;;;;;1.00;1.00;;;;;;;2.16;91.48;98309.59;5005543;28;20049;-78
2023/10/23 06:37:42;;;;;;;1.00;1.00;;;;;;;2.10;90.51;98314.50;5004724;28;20045;-78
2023/10/23 06:40:08;;;;;;;0.90;0.90;;;;;;;2.13;90.50;98313.78;5002950;28;20069;-78
2023/10/23 06:42:34;;;;;;;0.90;0.90;;;;;;;2.19;90.56;98315.00;5003397;28;20100;-78
2023/10/23 06:45:00;;;;;;;0.90;0.90;;;;;;;2.45;90.00;98311.19;5001286;28;20029;-78
2023/10/23 06:47:26;;;;;;;1.00;1.00;;;;;;;2.75;89.60;98303.09;5004624;28;20033;-78
2023/10/23 06:49:52;;;;;;;1.00;1.00;;;;;;;3.21;88.30;98294.91;5003785;28;20046;-78
2023/10/23 06:52:17;;;;;;;0.98;0.98;;;;;;;3.63;87.50;98279.41;5002898;28;20042;-78
2023/10/23 06:54:42;;;;;;;0.90;0.90;;;;;;;3.85;85.75;98285.81;5005781;28;20034;-79
2023/10/23 06:57:08;;;;;;;0.80;0.80;;;;;;;4.10;86.64;98282.59;5004627;28;20111;-78
2023/10/23 06:59:37;;;;;;;0.90;0.90;;;;;;;3.98;85.79;98283.75;5004916;28;20095;-79
2023/10/23 07:02:03;;;;;;;0.80;0.80;;;;;;;4.04;87.19;98289.31;5004324;28;20054;-79
2023/10/23 07:04:28;;;;;;;0.90;0.90;;;;;;;3.78;86.53;98293.34;5005700;28;20414;-80
2023/10/23 07:06:55;;;;;;;0.80;0.80;;;;;;;3.90;87.66;98290.41;5005404;28;20039;-78
2023/10/23 07:09:21;;;;;;;0.90;0.90;;;;;;;4.08;87.88;98299.19;5005753;28;20482;-79
2023/10/23 07:11:51;;;;;;;0.80;0.80;;;;;;;4.17;88.06;98299.63;5005501;28;20070;-78
2023/10/23 07:14:16;;;;;;;0.80;0.80;;;;;;;4.20;88.37;98304.13;5006791;28;20038;-78
2023/10/23 07:16:42;;;;;;;0.90;0.90;;;;;;;4.13;88.49;98300.31;5004182;28;20427;-79
2023/10/23 07:19:08;;;;;;;0.90;0.90;;;;;;;4.25;89.01;98292.94;5001798;28;20399;-78
2023/10/23 07:21:34;;;;;;;0.85;0.85;;;;;;;4.32;88.68;98292.41;5003100;28;20891;-80
2023/10/23 07:24:00;;;;;;;0.90;0.90;;;;;;;4.44;88.13;98297.34;5005311;28;20041;-78
2023/10/23 07:26:25;;;;;;;0.90;0.90;;;;;;;4.58;87.46;98285.66;5021783;28;20188;-78
2023/10/23 07:28:51;;;;;;;0.80;0.80;;;;;;;4.63;88.13;98273.56;5003263;28;21401;-80
2023/10/23 07:31:17;;;;;;;0.90;0.90;;;;;;;4.75;87.78;98267.94;5004549;28;20057;-80
2023/10/23 07:33:43;;;;;;;0.80;0.80;;;;;;;4.70;87.09;98266.84;5004689;28;20045;-79
2023/10/23 07:36:10;;;;;;;0.80;0.80;;;;;;;4.99;88.06;98248.72;5004300;28;20107;-79
2023/10/23 07:38:41;;;;;;;0.90;0.90;;;;;;;5.18;87.61;98246.00;5000829;28;20045;-79
2023/10/23 07:41:07;;;;;;;0.80;0.80;;;;;;;5.36;86.37;98249.41;5006477;28;20092;-79
2023/10/23 07:43:33;;;;;;;0.80;0.80;;;;;;;5.64;87.82;98238.22;5004958;28;20041;-78
2023/10/23 07:46:07;;;;;;;0.80;0.80;;;;;;;5.80;87.40;98236.19;5007231;28;20130;-79
2023/10/23 07:48:32;;;;;;;0.80;0.80;;;;;;;5.83;87.09;98238.94;5006267;28;20044;-79
2023/10/23 07:50:59;;;;;;;0.80;0.80;;;;;;;5.78;86.32;98228.19;5007143;28;20042;-79
2023/10/23 07:53:26;;;;;;;0.85;0.85;;;;;;;6.07;86.41;98215.22;5006643;28;20103;-79
2023/10/23 07:55:51;;;;;;;0.77;0.77;;;;;;;6.04;85.79;98207.16;5006832;28;20045;-78
2023/10/23 07:58:17;;;;;;;0.80;0.80;;;;;;;6.28;86.25;98216.03;5003076;28;20038;-79
2023/10/23 08:00:43;;;;;;;0.70;0.70;;;;;;;6.41;85.07;98220.91;5007291;28;20034;-79
2023/10/23 08:03:09;;;;;;;0.80;0.80;;;;;;;6.87;85.48;98225.25;5007431;28;20037;-78
2023/10/23 08:05:36;;;;;;;0.80;0.80;;;;;;;7.51;85.52;98220.31;5006154;28;20041;-80
2023/10/23 08:08:01;;;;;;;0.80;0.80;;;;;;;7.66;84.13;98220.81;5004791;28;20048;-80
2023/10/23 08:10:27;;;;;;;0.70;0.70;;;;;;;7.80;81.30;98214.19;5007402;28;20037;-79
2023/10/23 08:12:52;;;;;;;0.70;0.70;;;;;;;7.74;80.25;98211.34;5006542;28;20081;-79
2023/10/23 08:15:18;;;;;;;0.70;0.70;;;;;;;8.08;83.93;98212.41;5005882;28;20045;-79
2023/10/23 08:17:44;;;;;;;0.60;0.60;;;;;;;8.16;82.31;98209.13;5004743;28;20372;-79
2023/10/23 08:20:10;;;;;;;0.70;0.70;;;;;;;8.10;83.00;98202.75;5006216;28;20033;-79
2023/10/23 08:22:36;;;;;;;0.60;0.60;;;;;;;8.37;82.99;98206.22;5006795;28;20427;-82
2023/10/23 08:25:02;;;;;;;0.60;0.60;;;;;;;8.46;82.84;98198.53;5006304;28;20038;-82
2023/10/23 08:27:27;;;;;;;0.60;0.60;;;;;;;8.50;80.55;98203.94;4999621;28;20040;-80
2023/10/23 08:29:52;;;;;;;0.60;0.60;;;;;;;8.61;82.53;98194.50;5006326;28;20038;-79
2023/10/23 08:32:18;;;;;;;0.60;0.60;;;;;;;8.78;82.98;98198.53;5004014;28;20045;-79
2023/10/23 08:34:44;;;;;;;0.60;0.60;;;;;;;8.53;81.66;98204.94;5003955;28;20052;-81
2023/10/23 08:37:09;;;;;;;0.60;0.60;;;;;;;8.64;83.83;98199.91;5005437;28;20049;-79
2023/10/23 08:39:35;;;;;;;0.60;0.60;;;;;;;8.46;82.27;98193.22;5005051;28;20704;-79
2023/10/23 08:42:00;;;;;;;0.60;0.60;;;;;;;8.39;82.98;98201.88;5006185;28;20045;-79
2023/10/23 08:44:26;;;;;;;0.60;0.60;;;;;;;8.35;82.56;98197.28;5009047;28;20045;-79
2023/10/23 08:46:52;;;;;;;0.70;0.70;;;;;;;8.53;83.59;98188.97;5003565;28;20049;-79
2023/10/23 08:49:18;;;;;;;0.60;0.60;;;;;;;8.92;83.16;98186.50;4985553;28;20038;-80
2023/10/23 08:51:48;;;;;;;0.60;0.60;;;;;;;9.05;81.64;98194.81;5004450;28;20038;-78
2023/10/23 08:54:19;;;;;;;0.60;0.60;;;;;;;9.07;83.97;98193.09;5017297;28;20038;-80
2023/10/23 08:56:52;;;;;;;0.55;0.55;;;;;;;9.21;83.71;98199.69;5006114;28;20037;-80
2023/10/23 08:59:17;;;;;;;0.50;0.50;;;;;;;9.25;82.79;98206.91;5004657;28;20084;-80
2023/10/23 09:01:43;;;;;;;0.60;0.60;;;;;;;9.42;83.39;98202.88;5003520;28;20046;-81
2023/10/23 09:04:11;;;;;;;0.50;0.50;;;;;;;9.29;81.91;98211.41;5005289;28;20034;-79
2023/10/23 09:06:36;;;;;;;0.50;0.50;;;;;;;9.39;83.62;98217.88;5005837;28;20124;-80
2023/10/23 09:09:04;;;;;;;0.60;0.60;;;;;;;9.34;83.59;98203.53;5003334;28;20982;-81
2023/10/23 09:11:45;;;;;;;0.60;0.60;;;;;;;9.34;80.76;98190.22;5002238;28;20037;-82
2023/10/23 09:14:24;;;;;;;0.60;0.60;;;;;;;9.62;82.96;98189.16;5004502;28;20038;-82
2023/10/23 09:16:51;;;;;;;0.60;0.60;;;;;;;9.82;81.08;98184.28;5004631;28;20035;-80
2023/10/23 09:19:24;;;;;;;0.60;0.60;;;;;;;10.15;82.30;98179.72;4996139;28;20042;-80
2023/10/23 09:21:52;;;;;;;0.60;0.60;;;;;;;10.41;81.85;98183.00;5004652;28;20073;-81
2023/10/23 09:24:18;;;;;;;0.50;0.50;;;;;;;10.43;82.27;98189.25;5003825;28;20031;-80
2023/10/23 09:26:44;;;;;;;0.60;0.60;;;;;;;10.46;81.91;98189.31;5005744;28;20533;-81
2023/10/23 09:29:09;;;;;;;0.60;0.60;;;;;;;10.33;81.55;98186.34;5005241;28;20034;-81
2023/10/23 09:31:35;;;;;;;0.57;0.57;;;;;;;10.13;80.18;98185.91;5006761;28;20080;-81
2023/10/23 09:34:01;;;;;;;0.52;0.52;;;;;;;10.13;79.17;98181.47;5007213;28;20056;-81
2023/10/23 09:36:26;;;;;;;0.60;0.60;;;;;;;10.26;80.99;98174.69;5005330;28;20042;-82
2023/10/23 09:38:58;;;;;;;0.60;0.60;;;;;;;10.44;81.31;98158.13;5006088;28;20038;-81
2023/10/23 09:41:24;;;;;;;0.50;0.50;;;;;;;10.13;81.00;98161.91;5003308;28;20049;-81
2023/10/23 09:43:51;;;;;;;0.55;0.55;;;;;;;10.26;82.25;98169.34;5005996;28;20108;-81
2023/10/23 09:46:18;;;;;;;0.60;0.60;;;;;;;10.54;80.74;98165.47;5004491;28;20133;-82
2023/10/23 09:48:44;;;;;;;0.50;0.50;;;;;;;10.70;81.33;98166.69;5003138;28;20045;-83
2023/10/23 09:51:15;;;;;;;0.50;0.50;;;;;;;10.46;78.76;98173.31;5004984;28;20412;-82
2023/10/23 09:53:47;;;;;;;0.50;0.50;;;;;;;10.57;80.97;98167.28;5007288;28;20037;-82
2023/10/23 09:56:19;;;;;;;0.50;0.50;;;;;;;10.55;80.59;98174.38;5007183;28;20140;-81
2023/10/23 09:58:58;;;;;;;0.50;0.50;;;;;;;10.84;80.60;98165.19;5004467;28;20060;-83
2023/10/23 10:01:31;;;;;;;0.50;0.50;;;;;;;11.16;79.51;98164.84;5007142;28;20059;-81
2023/10/23 10:04:08;;;;;;;0.50;0.50;;;;;;;11.29;77.55;98177.53;5008814;28;20030;-81
2023/10/23 10:06:39;;;;;;;0.50;0.50;;;;;;;11.51;78.32;98165.47;5005482;28;20050;-81
2023/10/23 10:09:12;;;;;;;0.50;0.50;;;;;;;11.64;78.93;98174.56;4990400;28;20041;-82
2023/10/23 10:11:42;;;;;;;0.50;0.50;;;;;;;11.53;77.35;98167.25;5005980;28;20041;-81
2023/10/23 10:14:11;;;;;;;0.40;0.40;;;;;;;11.63;78.68;98159.41;5005462;28;20030;-82
2023/10/23 10:16:38;;;;;;;0.50;0.50;;;;;;;11.59;77.79;98169.13;5006996;28;20054;-82
2023/10/23 10:19:04;;;;;;;0.43;0.43;;;;;;;11.72;77.54;98163.13;5002942;28;20038;-82
2023/10/23 10:21:35;;;;;;;0.47;0.47;;;;;;;11.89;78.64;98160.75;5007763;28;20042;-80
2023/10/23 10:24:03;;;;;;;0.40;0.40;;;;;;;11.91;78.68;98171.44;5007774;28;20049;-80
2023/10/23 10:26:30;;;;;;;0.40;0.40;;;;;;;12.04;77.36;98158.28;5005294;28;20038;-80
2023/10/23 10:28:59;;;;;;;0.30;0.30;;;;;;;12.11;76.47;98158.34;5006118;28;20470;-81
2023/10/23 10:31:25;;;;;;;0.40;0.40;;;;;;;12.01;77.57;98158.22;5005779;28;20037;-81
2023/10/23 10:33:54;;;;;;;0.40;0.40;;;;;;;11.86;76.42;98151.78;5007333;28;20145;-82
2023/10/23 10:36:25;;;;;;;0.45;0.45;;;;;;;11.96;77.87;98143.91;5007114;28;20471;-80
2023/10/23 10:38:51;;;;;;;0.50;0.50;;;;;;;12.06;77.44;98131.56;5004659;28;20042;-81
2023/10/23 10:41:19;;;;;;;0.40;0.40;;;;;;;11.90;77.52;98126.88;5004652;28;20038;-82
2023/10/23 10:43:52;;;;;;;0.40;0.40;;;;;;;12.04;76.94;98119.97;5005071;28;20125;-81
2023/10/23 10:46:21;;;;;;;0.40;0.40;;;;;;;12.31;75.35;98120.31;5004892;28;20034;-82
2023/10/23 10:48:52;;;;;;;0.40;0.40;;;;;;;12.42;76.38;98112.41;5002137;28;20065;-81
2023/10/23 10:51:23;;;;;;;0.40;0.40;;;;;;;12.28;74.92;98108.69;5003874;28;20045;-82
2023/10/23 10:54:03;;;;;;;0.40;0.40;;;;;;;12.47;74.57;98101.78;5007207;28;20041;-81
2023/10/23 10:56:30;;;;;;;0.40;0.40;;;;;;;12.50;75.70;98091.09;5005525;28;20065;-81
2023/10/23 10:59:04;;;;;;;0.40;0.40;;;;;;;12.55;75.54;98086.69;5005911;28;20037;-81
2023/10/23 11:01:30;;;;;;;0.40;0.40;;;;;;;12.71;75.00;98083.31;5003681;28;20153;-82
2023/10/23 11:03:56;;;;;;;0.30;0.30;;;;;;;12.62;75.10;98082.31;5007149;28;20030;-81
2023/10/23 11:06:23;;;;;;;0.40;0.40;;;;;;;12.68;74.64;98072.56;5006481;28;20071;-82
2023/10/23 11:08:50;;;;;;;;;;;;;;;12.79;74.92;98073.56;5005936;28;20046;-82
2023/10/23 11:11:17;;;;;;;0.40;0.40;;;;;;;13.00;73.62;98072.88;5003584;28;19974;-83
2023/10/23 11:13:43;;;;;;;0.40;0.40;;;;;;;13.11;72.82;98070.28;5005487;28;20038;-82
2023/10/23 11:16:10;;;;;;;0.40;0.40;;;;;;;12.99;73.49;98063.06;5017536;28;20054;-81
2023/10/23 11:18:36;;;;;;;0.40;0.40;;;;;;;13.13;73.17;98059.56;5001206;28;20550;-81
2023/10/23 11:21:02;;;;;;;0.30;0.30;;;;;;;13.09;73.61;98048.84;5006676;28;20570;-81
2023/10/23 11:23:30;;;;;;;0.40;0.40;;;;;;;13.31;72.66;98049.03;5005638;28;20049;-83
2023/10/23 11:25:57;;;;;;;0.30;0.30;;;;;;;13.46;72.46;98037.53;5004324;28;20049;-81
2023/10/23 11:28:23;;;;;;;0.30;0.30;;;;;;;13.64;72.13;98034.97;5001122;28;20034;-82
2023/10/23 11:30:54;;;;;;;0.40;0.40;;;;;;;13.88;71.01;98030.63;5003870;28;20042;-81
2023/10/23 11:33:20;;;;;;;0.30;0.30;;;;;;;13.93;70.74;98029.75;5004065;28;20038;-81
2023/10/23 11:35:47;;;;;;;0.30;0.30;;;;;;;13.56;72.48;98029.56;5004552;28;20464;-80
2023/10/23 11:38:12;;;;;;;;;;;;;;;13.85;71.55;98020.78;5002838;28;20042;-80